Time;durP1;ratioP1;P1;durP2;ratioP2;P2;SDS_P1;SDS_P2;PMS_P1;PMS_P2;Temp;Humidity;BMP_temperature;BMP_pressure;BME280_temperature;BME280_humidity;BME280_pressure;Samples;Min_cycle;Max_cycle;Signal;HPM_P1;HPM_P2
2022/08/17 00:01:18;;;;;;;15.73;14.10;;;19.40;99.90;;;;;;5034037;28;20223;-77
2022/08/17 00:03:47;;;;;;;14.60;13.30;;;19.40;99.90;;;;;;5029534;28;20276;-78
2022/08/17 00:06:16;;;;;;;14.65;13.35;;;19.30;99.90;;;;;;5046455;28;20608;-77
2022/08/17 00:08:45;;;;;;;12.52;11.32;;;19.30;99.90;;;;;;5029307;28;20248;-79
2022/08/17 00:11:15;;;;;;;13.47;12.27;;;19.20;99.90;;;;;;5031127;28;20216;-79
2022/08/17 00:13:45;;;;;;;13.93;12.63;;;19.20;99.90;;;;;;5061255;28;20220;-78
2022/08/17 00:16:16;;;;;;;14.32;12.95;;;19.10;99.90;;;;;;5041444;28;20212;-79
2022/08/17 00:18:44;;;;;;;15.02;13.18;;;19.10;99.90;;;;;;5059013;28;20220;-78
2022/08/17 00:21:12;;;;;;;14.07;12.68;;;19.10;99.90;;;;;;5051849;28;20293;-77
2022/08/17 00:23:40;;;;;;;14.15;12.65;;;19.00;99.90;;;;;;5050847;28;20223;-77
2022/08/17 00:26:07;;;;;;;14.90;13.40;;;19.00;99.90;;;;;;5051901;28;20222;-77
2022/08/17 00:28:34;;;;;;;13.65;12.38;;;19.00;99.90;;;;;;5054945;28;20237;-77
2022/08/17 00:31:02;;;;;;;17.75;13.38;;;19.00;99.90;;;;;;5044004;28;20883;-77
2022/08/17 00:33:31;;;;;;;15.52;13.93;;;18.90;99.90;;;;;;5057079;28;20663;-78
2022/08/17 00:35:59;;;;;;;14.25;12.70;;;19.00;99.90;;;;;;5030249;28;20220;-78
2022/08/17 00:38:28;;;;;;;15.13;13.63;;;18.90;99.90;;;;;;5059925;28;20231;-78
2022/08/17 00:40:57;;;;;;;15.13;13.52;;;18.90;99.90;;;;;;5034962;28;20788;-75
2022/08/17 00:43:29;;;;;;;16.08;13.35;;;18.80;99.90;;;;;;5054086;28;20227;-78
2022/08/17 00:45:57;;;;;;;14.13;12.75;;;18.80;99.90;;;;;;5061799;28;20643;-79
2022/08/17 00:48:26;;;;;;;14.75;13.35;;;18.80;99.90;;;;;;5032774;28;20242;-77
2022/08/17 00:51:00;;;;;;;15.38;13.88;;;18.80;99.90;;;;;;5057200;28;20230;-78
2022/08/17 00:53:30;;;;;;;15.13;13.20;;;18.70;99.90;;;;;;5050550;28;20228;-78
2022/08/17 00:55:57;;;;;;;16.90;14.38;;;18.70;99.90;;;;;;5052308;28;20224;-77
2022/08/17 00:58:24;;;;;;;13.80;12.50;;;18.70;99.90;;;;;;5050649;28;20318;-78
2022/08/17 01:00:52;;;;;;;15.02;13.52;;;18.60;99.90;;;;;;5058531;22;20234;-93
2022/08/17 01:03:24;;;;;;;15.10;13.70;;;18.60;99.90;;;;;;5017101;28;20263;-93
2022/08/17 01:05:56;;;;;;;13.95;12.73;;;18.60;99.90;;;;;;5003658;28;20649;-93
2022/08/17 01:08:28;;;;;;;15.18;13.68;;;18.60;99.90;;;;;;5021169;28;20681;-93
2022/08/17 01:11:00;;;;;;;15.07;13.68;;;18.50;99.90;;;;;;5004327;28;20889;-93
2022/08/17 01:13:32;;;;;;;15.10;13.77;;;18.50;99.90;;;;;;5005965;28;20220;-93
2022/08/17 01:16:02;;;;;;;14.77;13.38;;;18.50;99.90;;;;;;5021446;28;20964;-92
2022/08/17 01:18:30;;;;;;;16.90;13.35;;;18.50;99.90;;;;;;5008019;28;20232;-92
2022/08/17 01:21:04;;;;;;;15.25;13.88;;;18.40;99.90;;;;;;5004969;28;20247;-91
2022/08/17 01:23:33;;;;;;;16.58;15.02;;;18.40;99.90;;;;;;5016814;28;20232;-92
2022/08/17 01:26:05;;;;;;;19.98;15.65;;;18.40;99.90;;;;;;5008416;28;20299;-91
2022/08/17 01:28:34;;;;;;;16.50;14.90;;;18.40;99.90;;;;;;5023448;28;20233;-92
2022/08/17 01:31:03;;;;;;;16.08;14.50;;;18.30;99.90;;;;;;5002701;28;20267;-92
2022/08/17 01:33:30;;;;;;;16.97;14.50;;;18.30;99.90;;;;;;5007678;28;20228;-93
2022/08/17 01:35:59;;;;;;;14.93;13.65;;;18.30;99.90;;;;;;5005453;28;20225;-92
2022/08/17 01:38:30;;;;;;;13.93;12.63;;;18.20;99.90;;;;;;5022120;28;20232;-92
2022/08/17 01:41:01;;;;;;;14.03;12.83;;;18.20;99.90;;;;;;5022393;28;20240;-92
2022/08/17 01:43:39;;;;;;;14.55;13.05;;;18.20;99.90;;;;;;5005261;28;20224;-92
2022/08/17 01:46:07;;;;;;;14.97;13.57;;;18.10;99.90;;;;;;4999382;28;20224;-91
2022/08/17 01:48:38;;;;;;;15.55;14.13;;;18.10;99.90;;;;;;5024781;28;20288;-92
2022/08/17 01:51:07;;;;;;;16.40;14.80;;;18.10;99.90;;;;;;5002661;28;20313;-92
2022/08/17 01:53:39;;;;;;;16.23;14.53;;;18.10;99.90;;;;;;5001111;28;20220;-93
2022/08/17 01:56:10;;;;;;;18.37;16.40;;;18.10;99.90;;;;;;5006354;28;20300;-92
2022/08/17 01:58:40;;;;;;;18.00;16.20;;;18.00;99.90;;;;;;5022729;28;20213;-92
2022/08/17 02:01:12;;;;;;;16.13;14.43;;;18.00;99.90;;;;;;5004397;28;20294;-92
2022/08/17 02:03:40;;;;;;;19.00;17.20;;;18.00;99.90;;;;;;5015934;28;20229;-93
2022/08/17 02:06:08;;;;;;;17.90;15.73;;;18.00;99.90;;;;;;5022064;28;20252;-92
2022/08/17 02:08:35;;;;;;;17.87;15.97;;;17.90;99.90;;;;;;5005911;28;20237;-92
2022/08/17 02:11:03;;;;;;;15.73;14.20;;;17.90;99.90;;;;;;5007975;28;20231;-93
2022/08/17 02:13:32;;;;;;;17.83;15.83;;;17.90;99.90;;;;;;5024597;28;20597;-93
2022/08/17 02:16:00;;;;;;;17.93;16.13;;;17.80;99.90;;;;;;5004901;28;20221;-93
2022/08/17 02:18:28;;;;;;;18.20;16.40;;;17.80;99.90;;;;;;5013867;28;20423;-92
2022/08/17 02:20:56;;;;;;;15.70;14.10;;;17.80;99.90;;;;;;5015024;28;21030;-93
2022/08/17 02:23:26;;;;;;;17.20;15.67;;;17.80;99.90;;;;;;5008799;28;20222;-92
2022/08/17 02:25:54;;;;;;;16.77;15.07;;;17.70;99.90;;;;;;5027571;28;20224;-93
2022/08/17 02:28:21;;;;;;;16.40;14.80;;;17.70;99.90;;;;;;5010401;28;20327;-93
2022/08/17 02:30:52;;;;;;;16.30;14.70;;;17.80;99.90;;;;;;5027214;28;20314;-93
2022/08/17 02:33:19;;;;;;;16.20;14.63;;;17.70;99.90;;;;;;5049420;23;20653;-93
2022/08/17 02:35:46;;;;;;;16.93;15.40;;;17.70;99.90;;;;;;5051471;28;20310;-93
2022/08/17 02:38:12;;;;;;;17.07;15.30;;;17.70;99.90;;;;;;5040055;28;20722;-92
2022/08/17 02:40:40;;;;;;;17.23;15.47;;;17.70;99.90;;;;;;5051769;28;20254;-93
2022/08/17 02:43:10;;;;;;;18.77;16.87;;;17.70;99.90;;;;;;5043820;28;20230;-93
2022/08/17 02:45:37;;;;;;;17.23;15.60;;;17.60;99.90;;;;;;5047871;28;20303;-93
2022/08/17 02:48:05;;;;;;;18.80;16.80;;;17.60;99.90;;;;;;5041909;28;20216;-94
2022/08/17 02:50:32;;;;;;;19.60;17.17;;;17.70;99.90;;;;;;5056245;28;20227;-93
2022/08/17 02:52:59;;;;;;;21.70;19.60;;;17.60;99.90;;;;;;5039481;28;20227;-92
2022/08/17 02:55:28;;;;;;;19.40;17.53;;;17.60;99.90;;;;;;5061370;28;20218;-92
2022/08/17 02:57:56;;;;;;;18.57;16.50;;;17.50;99.90;;;;;;5070212;28;20211;-93
2022/08/17 03:00:28;;;;;;;15.87;14.37;;;17.60;99.90;;;;;;5056869;28;20294;-92
2022/08/17 03:02:56;;;;;;;17.20;15.40;;;17.50;99.90;;;;;;5048646;28;20227;-93
2022/08/17 03:05:26;;;;;;;17.40;15.80;;;17.50;99.90;;;;;;5044120;28;20247;-92
2022/08/17 03:07:54;;;;;;;18.93;16.93;;;17.50;99.90;;;;;;5063761;28;20306;-93
2022/08/17 03:10:23;;;;;;;16.97;15.13;;;17.50;99.90;;;;;;5058071;28;20307;-93
2022/08/17 03:12:51;;;;;;;15.33;13.83;;;17.40;99.90;;;;;;5033984;28;20220;-92
2022/08/17 03:15:20;;;;;;;16.67;14.80;;;17.50;99.90;;;;;;5061475;28;20224;-92
2022/08/17 03:17:47;;;;;;;18.57;16.67;;;17.50;99.90;;;;;;5049655;28;20309;-92
2022/08/17 03:20:15;;;;;;;18.43;16.53;;;17.40;99.90;;;;;;5072543;28;20226;-93
2022/08/17 03:22:46;;;;;;;19.00;17.13;;;17.40;99.90;;;;;;5052318;23;20252;-92
2022/08/17 03:25:18;;;;;;;20.80;18.90;;;17.40;99.90;;;;;;5051337;28;20226;-92
2022/08/17 03:27:48;;;;;;;21.67;19.47;;;17.40;99.90;;;;;;5049098;28;20302;-92
2022/08/17 03:30:15;;;;;;;20.27;18.37;;;17.40;99.90;;;;;;5060001;28;20242;-92
2022/08/17 03:32:46;;;;;;;17.70;16.00;;;17.40;99.90;;;;;;5036343;28;20234;-92
2022/08/17 03:35:16;;;;;;;19.07;17.17;;;17.30;99.90;;;;;;5045669;28;20927;-92
2022/08/17 03:37:44;;;;;;;19.67;17.63;;;17.30;99.90;;;;;;5048524;28;20246;-92
2022/08/17 03:40:16;;;;;;;19.30;17.30;;;17.30;99.90;;;;;;5051065;28;20223;-91
2022/08/17 03:42:43;;;;;;;21.07;18.97;;;17.30;99.90;;;;;;5047702;28;20912;-92
2022/08/17 03:45:13;;;;;;;20.90;18.77;;;17.20;99.90;;;;;;5042463;28;20724;-92
2022/08/17 03:58:43;;;;;;;21.77;19.53;;;17.20;99.90;;;;;;5049337;28;20264;-92
2022/08/17 04:01:10;;;;;;;19.63;17.73;;;17.20;99.90;;;;;;5037068;28;20516;-91
2022/08/17 04:03:37;;;;;;;19.00;17.07;;;17.20;99.90;;;;;;5032823;28;20224;-92
2022/08/17 04:06:04;;;;;;;20.23;18.23;;;17.10;99.90;;;;;;5044133;28;20215;-93
2022/08/17 04:08:33;;;;;;;22.13;19.93;;;17.10;99.90;;;;;;5065002;28;20561;-92
2022/08/17 04:11:00;;;;;;;20.20;18.27;;;17.10;99.90;;;;;;5044702;28;20221;-93
2022/08/17 04:13:29;;;;;;;21.00;18.90;;;17.10;99.90;;;;;;5036433;28;20216;-92
2022/08/17 04:15:56;;;;;;;22.57;20.27;;;17.10;99.90;;;;;;5042869;28;20223;-92
2022/08/17 04:18:22;;;;;;;22.57;19.90;;;17.10;99.90;;;;;;5057014;28;20687;-92
2022/08/17 04:20:50;;;;;;;20.80;18.80;;;17.10;99.90;;;;;;5044347;28;20217;-92
2022/08/17 04:23:21;;;;;;;23.90;21.50;;;17.10;99.90;;;;;;5056093;28;20231;-93
2022/08/17 04:25:53;;;;;;;21.77;19.50;;;17.00;99.90;;;;;;5043791;28;20259;-93
2022/08/17 04:28:20;;;;;;;22.77;20.43;;;17.10;99.90;;;;;;5043565;28;20254;-93
2022/08/17 04:30:47;;;;;;;21.20;19.07;;;17.00;99.90;;;;;;5040009;28;20230;-93
2022/08/17 04:33:17;;;;;;;20.17;18.13;;;17.10;99.90;;;;;;5063205;28;20222;-93
2022/08/17 04:35:49;;;;;;;20.43;18.33;;;17.10;99.90;;;;;;5052600;28;20307;-92
2022/08/17 04:38:19;;;;;;;18.67;16.80;;;17.10;99.90;;;;;;5059714;28;20261;-91
2022/08/17 04:43:38;;;;;;;18.77;16.80;;;17.10;99.90;;;;;;5039782;28;20232;-92
2022/08/17 04:46:08;;;;;;;17.90;16.07;;;17.00;99.90;;;;;;5043095;28;20223;-93
2022/08/17 04:48:37;;;;;;;17.97;16.27;;;17.10;99.90;;;;;;5051026;28;20278;-90
2022/08/17 04:51:08;;;;;;;19.17;17.23;;;17.10;99.90;;;;;;5055579;28;20301;-92
2022/08/17 04:53:35;;;;;;;18.47;16.60;;;17.10;99.90;;;;;;5053174;28;20358;-94
2022/08/17 04:56:02;;;;;;;21.50;19.37;;;17.10;99.90;;;;;;5053263;28;20220;-94
2022/08/17 04:58:31;;;;;;;21.83;19.57;;;17.10;99.90;;;;;;5044998;28;20218;-93
2022/08/17 05:00:57;;;;;;;19.17;17.37;;;17.10;99.90;;;;;;5063477;28;20311;-91
2022/08/17 05:03:24;;;;;;;18.63;16.73;;;17.20;99.90;;;;;;5044380;28;20283;-93
2022/08/17 05:05:52;;;;;;;20.83;18.67;;;17.20;99.90;;;;;;5039419;28;20739;-91
2022/08/17 05:08:20;;;;;;;20.43;18.33;;;17.20;99.90;;;;;;5048362;28;20265;-92
2022/08/17 05:10:48;;;;;;;20.77;18.77;;;17.20;99.90;;;;;;5047232;28;20223;-92
2022/08/17 05:13:17;;;;;;;20.27;18.20;;;17.30;99.90;;;;;;5038134;28;20327;-93
2022/08/17 05:15:48;;;;;;;21.70;19.40;;;17.40;99.90;;;;;;5046537;28;20220;-92
2022/08/17 05:18:16;;;;;;;24.00;21.50;;;17.40;99.90;;;;;;5039836;28;20224;-95
2022/08/17 05:20:44;;;;;;;21.80;19.67;;;17.50;99.90;;;;;;5059239;28;20283;-92
2022/08/17 05:23:17;;;;;;;21.50;19.40;;;17.50;99.90;;;;;;5062080;28;20488;-92
2022/08/17 05:25:46;;;;;;;20.80;18.80;;;17.60;99.90;;;;;;5058436;28;20243;-92
2022/08/17 05:28:17;;;;;;;23.40;20.90;;;17.70;99.90;;;;;;5061721;28;20215;-94
2022/08/17 05:30:47;;;;;;;23.70;21.30;;;17.80;99.90;;;;;;5078142;28;20227;-96
2022/08/17 05:33:18;;;;;;;26.43;23.13;;;17.90;99.90;;;;;;5075631;28;20231;-96
2022/08/17 05:35:47;;;;;;;26.17;23.60;;;18.00;99.90;;;;;;5075347;28;20306;-96
2022/08/17 05:38:19;;;;;;;26.67;23.83;;;18.10;99.90;;;;;;5067711;28;20228;-96
2022/08/17 05:40:47;;;;;;;27.30;24.50;;;18.20;99.90;;;;;;5067574;28;20415;-94
2022/08/17 05:43:17;;;;;;;27.10;23.90;;;18.40;99.90;;;;;;5064202;28;20270;-96
2022/08/17 05:45:57;;;;;;;25.20;22.60;;;18.40;99.90;;;;;;5065419;28;20207;-96
2022/08/17 05:48:36;;;;;;;24.37;22.03;;;18.50;99.90;;;;;;5067934;28;20223;-96
2022/08/17 05:51:28;;;;;;;26.75;23.92;;;18.60;99.90;;;;;;5071107;23;20211;-86
2022/08/17 05:54:07;;;;;;;27.40;24.65;;;18.80;99.90;;;;;;5016832;28;20215;-86
2022/08/17 05:56:51;;;;;;;25.73;23.20;;;18.90;99.90;;;;;;5023364;28;20231;-86
2022/08/17 05:59:29;;;;;;;24.45;21.85;;;18.90;99.90;;;;;;5043088;28;20222;-87
2022/08/17 06:02:05;;;;;;;28.23;24.65;;;19.00;99.90;;;;;;5058378;28;20226;-86
2022/08/17 06:04:46;;;;;;;26.30;23.80;;;19.10;99.90;;;;;;5037563;28;20813;-87
2022/08/17 06:07:20;;;;;;;27.40;24.67;;;19.20;99.90;;;;;;5044098;28;20848;-87
2022/08/17 06:09:57;;;;;;;27.55;24.73;;;19.30;99.90;;;;;;5041880;28;20874;-86
2022/08/17 06:12:36;;;;;;;27.45;24.67;;;19.40;99.90;;;;;;5055648;28;20875;-87
2022/08/17 06:15:23;;;;;;;27.08;24.25;;;19.50;99.90;;;;;;5057511;28;20216;-86
2022/08/17 06:17:54;;;;;;;26.40;23.80;;;19.60;99.90;;;;;;5058429;28;20269;-86
2022/08/17 06:20:21;;;;;;;24.70;22.20;;;19.70;99.90;;;;;;5036743;28;20230;-86
2022/08/17 06:22:51;;;;;;;26.85;24.20;;;19.80;99.90;;;;;;5044121;28;20616;-87
2022/08/17 06:25:21;;;;;;;26.58;23.90;;;19.90;99.90;;;;;;5040506;28;20215;-84
2022/08/17 06:27:51;;;;;;;25.05;22.67;;;20.00;99.90;;;;;;5057533;28;20226;-86
2022/08/17 06:30:21;;;;;;;23.50;21.10;;;20.10;99.90;;;;;;5041928;28;20219;-87
2022/08/17 06:32:50;;;;;;;24.65;22.27;;;20.20;99.90;;;;;;5041920;28;20271;-86
2022/08/17 06:35:25;;;;;;;23.58;21.38;;;20.30;99.90;;;;;;5039731;28;20964;-86
2022/08/17 06:38:09;;;;;;;23.77;21.48;;;20.50;99.90;;;;;;5062781;28;20714;-87
2022/08/17 06:40:51;;;;;;;23.38;20.98;;;20.60;99.90;;;;;;5055095;28;20227;-87
2022/08/17 06:43:33;;;;;;;22.98;20.58;;;20.70;99.90;;;;;;5037197;28;20224;-87
2022/08/17 06:46:04;;;;;;;21.73;19.48;;;20.80;99.90;;;;;;5043629;28;20223;-87
2022/08/17 06:48:38;;;;;;;21.42;19.42;;;21.00;99.90;;;;;;5039381;28;20751;-87
2022/08/17 06:51:14;;;;;;;21.83;19.63;;;21.10;99.90;;;;;;5042465;28;20307;-86
2022/08/17 06:53:45;;;;;;;22.08;19.98;;;21.30;99.90;;;;;;5054832;28;20328;-86
2022/08/17 06:56:18;;;;;;;20.60;18.27;;;21.40;99.90;;;;;;5040364;28;20319;-87
2022/08/17 06:58:46;;;;;;;20.55;18.45;;;21.50;99.90;;;;;;5058448;28;20230;-87
2022/08/17 07:01:18;;;;;;;21.05;18.83;;;21.60;99.90;;;;;;5041124;28;20249;-87
2022/08/17 07:03:53;;;;;;;19.83;17.83;;;21.70;99.90;;;;;;5043622;28;20251;-86
2022/08/17 07:06:23;;;;;;;19.50;17.60;;;21.90;99.90;;;;;;5041004;28;20505;-86
2022/08/17 07:08:57;;;;;;;22.20;18.38;;;22.00;99.90;;;;;;5063384;28;20223;-87
2022/08/17 07:11:30;;;;;;;19.20;17.33;;;22.10;99.90;;;;;;5035489;28;20254;-87
2022/08/17 07:14:07;;;;;;;19.25;17.15;;;22.30;99.90;;;;;;5058862;28;20226;-85
2022/08/17 07:16:39;;;;;;;19.40;16.70;;;22.50;99.90;;;;;;5055378;28;20841;-87
2022/08/17 07:19:07;;;;;;;18.65;16.88;;;22.60;99.90;;;;;;5061625;28;20289;-88
2022/08/17 07:21:44;;;;;;;17.00;15.20;;;22.70;99.90;;;;;;5059359;28;20223;-87
2022/08/17 07:24:29;;;;;;;15.63;14.23;;;22.80;99.90;;;;;;5037909;28;20242;-90
2022/08/17 07:27:05;;;;;;;15.55;14.15;;;23.00;99.90;;;;;;5040737;28;20250;-88
2022/08/17 07:29:38;;;;;;;13.43;12.10;;;23.10;99.90;;;;;;5055139;28;20219;-88
2022/08/17 07:32:05;;;;;;;16.00;14.05;;;23.40;99.90;;;;;;5039292;28;20324;-90
2022/08/17 07:35:00;;;;;;;13.80;12.60;;;23.70;99.90;;;;;;5035524;28;20228;-89
2022/08/17 07:37:32;;;;;;;13.55;12.20;;;24.10;99.90;;;;;;5059030;28;20703;-88
2022/08/17 07:39:59;;;;;;;14.45;13.10;;;24.60;99.90;;;;;;5042606;28;20796;-88
2022/08/17 07:42:27;;;;;;;14.02;12.63;;;25.20;99.90;;;;;;5042707;28;20462;-87
2022/08/17 07:44:56;;;;;;;11.80;10.75;;;25.60;99.90;;;;;;5037034;28;20226;-88
2022/08/17 07:50:24;;;;;;;10.57;9.10;;;26.50;99.90;;;;;;5038846;28;20250;-87
2022/08/17 07:52:52;;;;;;;11.57;10.48;;;26.90;99.90;;;;;;5056068;28;20617;-84
2022/08/17 07:55:28;;;;;;;11.73;10.52;;;27.20;99.90;;;;;;5062238;28;20235;-85
2022/08/17 07:57:57;;;;;;;10.90;9.88;;;27.60;99.60;;;;;;5060814;28;20644;-86
2022/08/17 08:00:23;;;;;;;10.90;9.90;;;27.80;99.40;;;;;;5040252;28;20504;-87
2022/08/17 08:03:05;;;;;;;10.10;9.10;;;28.10;99.10;;;;;;5065075;28;20598;-88
2022/08/17 08:05:31;;;;;;;10.65;9.65;;;28.40;97.80;;;;;;5062685;28;20880;-86
2022/08/17 08:08:02;;;;;;;10.63;9.52;;;28.60;98.20;;;;;;5038749;28;20227;-88
2022/08/17 08:10:34;;;;;;;9.90;8.82;;;28.90;97.30;;;;;;5038855;28;20304;-90
2022/08/17 08:13:06;;;;;;;9.50;8.60;;;29.10;96.40;;;;;;5049994;28;20318;-88
2022/08/17 08:15:36;;;;;;;9.05;8.25;;;29.30;96.20;;;;;;5058498;28;20960;-89
2022/08/17 08:18:05;;;;;;;8.57;7.65;;;29.50;95.40;;;;;;5032662;28;20226;-86
2022/08/17 08:20:40;;;;;;;8.93;7.93;;;29.50;95.10;;;;;;5050213;28;20228;-90
2022/08/17 08:23:17;;;;;;;7.88;7.07;;;29.60;94.60;;;;;;5051650;28;20224;-88
2022/08/17 08:25:55;;;;;;;7.72;7.03;;;29.60;94.30;;;;;;5034381;28;20599;-88
2022/08/17 08:28:32;;;;;;;8.02;7.43;;;29.70;94.10;;;;;;5036051;28;20689;-89
2022/08/17 08:31:09;;;;;;;7.55;6.85;;;29.90;93.60;;;;;;5041090;28;20223;-87
2022/08/17 08:33:47;;;;;;;7.40;6.70;;;30.10;93.70;;;;;;5061931;28;20223;-89
2022/08/17 08:36:26;;;;;;;6.60;5.97;;;30.30;93.20;;;;;;5037530;28;20306;-88
2022/08/17 08:39:02;;;;;;;7.10;6.40;;;30.70;92.80;;;;;;5060764;28;20592;-90
2022/08/17 08:41:43;;;;;;;7.53;6.82;;;30.90;92.60;;;;;;5042276;28;20239;-88
2022/08/17 08:44:26;;;;;;;6.80;6.15;;;31.20;91.70;;;;;;5060670;28;20832;-90
2022/08/17 08:47:02;;;;;;;6.57;5.97;;;31.50;91.30;;;;;;5057836;28;20314;-89
2022/08/17 08:50:01;;;;;;;6.57;5.97;;;31.80;90.60;;;;;;5046202;28;20254;-85
2022/08/17 08:52:50;;;;;;;8.05;6.78;;;32.20;90.60;;;;;;5049847;28;20242;-83
2022/08/17 08:55:24;;;;;;;7.00;6.07;;;32.40;89.20;;;;;;5029770;28;20912;-85
2022/08/17 08:57:56;;;;;;;6.95;6.13;;;32.60;87.50;;;;;;5006484;28;20648;-84
2022/08/17 09:00:25;;;;;;;7.03;5.97;;;32.90;87.10;;;;;;5058097;28;20230;-85
2022/08/17 09:03:19;;;;;;;7.30;6.60;;;33.10;86.60;;;;;;5041366;28;20220;-84
2022/08/17 09:06:00;;;;;;;7.10;6.50;;;33.40;84.80;;;;;;5047045;28;20306;-85
2022/08/17 09:08:36;;;;;;;7.28;6.57;;;33.70;82.60;;;;;;5060885;28;20214;-85
2022/08/17 09:11:08;;;;;;;8.50;6.32;;;34.00;81.70;;;;;;5049624;28;20219;-85
2022/08/17 09:13:44;;;;;;;7.10;6.50;;;34.20;81.40;;;;;;5043737;28;20299;-85
2022/08/17 09:16:15;;;;;;;6.50;6.00;;;34.40;79.40;;;;;;5042839;28;20933;-84
2022/08/17 09:18:50;;;;;;;6.30;5.80;;;34.60;77.90;;;;;;5062520;28;20765;-85
2022/08/17 09:21:23;;;;;;;5.93;5.43;;;34.80;77.70;;;;;;5056772;28;20258;-85
2022/08/17 09:23:58;;;;;;;6.57;5.55;;;35.00;76.90;;;;;;5055721;28;20214;-84
2022/08/17 09:26:31;;;;;;;5.93;5.35;;;35.20;74.80;;;;;;5063229;28;20234;-85
2022/08/17 09:29:02;;;;;;;6.15;5.60;;;35.60;75.10;;;;;;5042324;28;20219;-85
2022/08/17 09:31:34;;;;;;;6.60;6.10;;;35.90;74.00;;;;;;5059758;28;20335;-85
2022/08/17 09:34:05;;;;;;;6.00;5.40;;;36.10;72.90;;;;;;5062809;28;20219;-85
2022/08/17 09:36:38;;;;;;;6.28;5.32;;;36.40;70.60;;;;;;5061990;28;20321;-85
2022/08/17 09:39:08;;;;;;;5.90;5.40;;;36.60;70.20;;;;;;5039623;28;20339;-85
2022/08/17 09:41:44;;;;;;;7.25;5.38;;;36.70;68.70;;;;;;5023910;28;20252;-85
2022/08/17 09:44:21;;;;;;;5.82;5.30;;;36.80;68.10;;;;;;5041360;28;20614;-85
2022/08/17 09:46:53;;;;;;;5.88;5.30;;;36.70;65.90;;;;;;5059412;28;20219;-84
2022/08/17 09:49:30;;;;;;;5.82;5.05;;;36.70;66.60;;;;;;5044354;28;20586;-85
2022/08/17 09:52:01;;;;;;;5.38;4.90;;;36.70;66.40;;;;;;5031364;28;20710;-85
2022/08/17 09:54:30;;;;;;;7.28;5.40;;;36.80;64.80;;;;;;5039991;28;20223;-85
2022/08/17 09:57:07;;;;;;;5.28;4.88;;;36.90;65.10;;;;;;5062446;28;20306;-85
2022/08/17 09:59:47;;;;;;;5.53;5.00;;;37.00;63.90;;;;;;5048863;28;20253;-84
2022/08/17 10:02:39;;;;;;;4.82;4.43;;;37.20;63.50;;;;;;5060854;28;20229;-81
2022/08/17 10:05:10;;;;;;;5.28;4.40;;;37.40;60.50;;;;;;5035633;28;20232;-82
2022/08/17 10:07:45;;;;;;;5.05;4.45;;;37.60;59.40;;;;;;5033388;28;20852;-82
2022/08/17 10:10:15;;;;;;;5.63;4.43;;;37.80;59.00;;;;;;5029942;28;20402;-82
2022/08/17 10:12:51;;;;;;;5.47;4.97;;;37.90;58.10;;;;;;5042215;28;20223;-82
2022/08/17 10:15:26;;;;;;;4.30;3.95;;;38.00;57.30;;;;;;5063389;28;20699;-82
2022/08/17 10:18:20;;;;;;;5.03;4.63;;;38.20;57.50;;;;;;5047644;28;20223;-82
2022/08/17 10:26:11;;;;;;;5.70;4.53;;;38.40;57.80;;;;;;5050354;28;20220;-81
2022/08/17 10:26:35;;;;;;;4.93;4.05;;;38.80;55.70;;;;;;5037834;28;20311;-82
2022/08/17 10:29:11;;;;;;;5.25;4.15;;;39.00;54.90;;;;;;5045857;28;20223;-82
2022/08/17 10:31:43;;;;;;;5.78;4.20;;;39.10;54.20;;;;;;5062487;28;20227;-82
2022/08/17 10:34:41;;;;;;;6.93;4.20;;;39.10;53.70;;;;;;5063729;28;20241;-82
2022/08/17 10:37:24;;;;;;;4.93;4.55;;;38.90;52.60;;;;;;5056382;28;20369;-82
2022/08/17 10:40:16;;;;;;;6.10;4.30;;;38.70;53.00;;;;;;5054573;28;20723;-81
2022/08/17 10:42:48;;;;;;;4.57;4.22;;;38.40;53.00;;;;;;5057190;28;20257;-82
2022/08/17 10:45:22;;;;;;;5.55;4.65;;;38.10;53.20;;;;;;5060134;28;20228;-82
2022/08/17 10:48:00;;;;;;;4.63;4.20;;;37.80;53.00;;;;;;5067096;28;20226;-81
2022/08/17 10:50:46;;;;;;;5.10;4.60;;;37.60;53.20;;;;;;5049573;28;20304;-81
2022/08/17 10:53:54;;;;;;;4.75;4.35;;;37.30;53.60;;;;;;5048269;28;20231;-80
2022/08/17 10:56:23;;;;;;;4.70;4.30;;;37.10;53.60;;;;;;5066928;28;20703;-81
2022/08/17 10:58:53;;;;;;;8.52;4.70;;;37.00;52.90;;;;;;5035180;28;20226;-81
2022/08/17 11:01:45;;;;;;;5.03;4.53;;;36.80;53.60;;;;;;5049187;28;20238;-80
2022/08/17 11:04:26;;;;;;;5.30;4.78;;;36.80;53.50;;;;;;5060554;28;20228;-82
2022/08/17 11:07:06;;;;;;;5.10;4.57;;;36.90;54.20;;;;;;5056375;28;20246;-81
2022/08/17 11:09:52;;;;;;;5.55;4.75;;;36.90;53.30;;;;;;5050176;28;20231;-84
2022/08/17 11:12:31;;;;;;;4.85;4.45;;;36.90;53.50;;;;;;5054246;28;20317;-82
2022/08/17 11:15:07;;;;;;;5.00;4.43;;;36.90;52.80;;;;;;5065920;28;20223;-82
2022/08/17 11:17:57;;;;;;;4.75;4.35;;;36.80;52.90;;;;;;5041077;28;20403;-82
2022/08/17 11:20:54;;;;;;;5.32;4.80;;;36.70;53.50;;;;;;5058535;28;20922;-81
2022/08/17 11:23:33;;;;;;;5.47;4.60;;;36.60;53.50;;;;;;5029782;28;20235;-80
2022/08/17 11:26:07;;;;;;;5.30;4.40;;;36.60;53.60;;;;;;5033609;28;20638;-80
2022/08/17 11:28:47;;;;;;;6.30;4.30;;;36.50;53.30;;;;;;5053714;28;21142;-78
2022/08/17 11:31:27;;;;;;;5.15;4.40;;;36.40;53.50;;;;;;5048010;28;20324;-82
2022/08/17 11:34:07;;;;;;;4.82;4.38;;;36.40;52.70;;;;;;5047618;28;20229;-83
2022/08/17 11:37:11;;;;;;;6.25;5.75;;;36.30;53.20;;;;;;5029156;28;20219;-81
2022/08/17 11:40:05;;;;;;;6.47;5.30;;;36.30;54.00;;;;;;5029713;28;20258;-80
2022/08/17 11:42:49;;;;;;;13.20;10.32;;;36.10;53.30;;;;;;5046133;28;20215;-83
2022/08/17 11:45:40;;;;;;;9.80;8.82;;;36.00;53.80;;;;;;5051569;28;20227;-85
2022/08/17 11:54:08;;;;;;;6.93;5.18;;;35.90;54.60;;;;;;5060406;28;20304;-85
2022/08/17 11:56:45;;;;;;;6.20;5.10;;;35.90;54.80;;;;;;5046653;28;20231;-82
2022/08/17 11:59:49;;;;;;;5.82;4.43;;;35.90;54.20;;;;;;5048422;28;20223;-86
2022/08/17 12:02:33;;;;;;;4.45;4.13;;;35.90;53.60;;;;;;5052369;28;20230;-87
2022/08/17 12:05:10;;;;;;;5.05;4.57;;;35.90;52.30;;;;;;5040942;28;20220;-86
2022/08/17 12:07:42;;;;;;;5.03;4.30;;;35.90;52.90;;;;;;5031517;28;20234;-87
2022/08/17 12:10:11;;;;;;;4.88;4.40;;;35.80;52.70;;;;;;5059837;28;20298;-87
2022/08/17 12:12:42;;;;;;;5.13;4.63;;;35.70;52.40;;;;;;5059369;28;20293;-88
2022/08/17 12:15:17;;;;;;;5.15;4.70;;;35.60;52.40;;;;;;5046825;28;20290;-85
2022/08/17 12:17:52;;;;;;;6.28;4.55;;;35.50;52.60;;;;;;5042397;28;20710;-86
2022/08/17 12:20:22;;;;;;;5.45;4.95;;;35.50;52.80;;;;;;5036683;28;20317;-87
2022/08/17 12:22:59;;;;;;;5.07;4.68;;;35.40;52.60;;;;;;5035759;28;20216;-90
2022/08/17 12:25:33;;;;;;;5.18;4.63;;;35.30;53.30;;;;;;5043923;28;20230;-91
2022/08/17 12:28:00;;;;;;;5.20;4.70;;;35.10;54.20;;;;;;5057098;28;20219;-88
2022/08/17 12:30:28;;;;;;;5.45;4.57;;;34.90;53.80;;;;;;5055757;28;20224;-88
2022/08/17 12:32:55;;;;;;;7.05;5.47;;;34.80;54.00;;;;;;5039495;28;20303;-89
2022/08/17 12:35:28;;;;;;;4.97;4.32;;;34.60;53.90;;;;;;5035766;28;20319;-88
2022/08/17 12:37:57;;;;;;;5.13;4.72;;;34.40;54.40;;;;;;5057991;28;20219;-89
2022/08/17 12:40:26;;;;;;;5.68;4.80;;;34.30;54.10;;;;;;5037427;28;20231;-89
2022/08/17 12:42:56;;;;;;;4.80;4.40;;;34.20;54.10;;;;;;5036207;28;20219;-90
2022/08/17 12:45:26;;;;;;;5.40;4.93;;;34.00;54.00;;;;;;5055213;28;20278;-89
2022/08/17 12:48:01;;;;;;;5.45;4.60;;;33.90;54.50;;;;;;5051596;28;20231;-88
2022/08/17 12:50:28;;;;;;;5.05;4.57;;;33.70;55.20;;;;;;5056445;28;20225;-89
2022/08/17 12:52:56;;;;;;;5.30;4.80;;;33.60;55.90;;;;;;5037687;28;20219;-86
2022/08/17 12:55:25;;;;;;;5.43;4.80;;;33.50;55.70;;;;;;5059547;28;20231;-87
2022/08/17 12:57:54;;;;;;;5.63;5.13;;;33.40;55.70;;;;;;5060312;28;20226;-88
2022/08/17 13:00:25;;;;;;;9.63;5.40;;;33.30;55.10;;;;;;5059830;28;20219;-88
2022/08/17 13:02:57;;;;;;;5.47;4.72;;;33.30;56.10;;;;;;5056810;28;20228;-87
2022/08/17 13:05:27;;;;;;;5.07;4.60;;;33.20;55.90;;;;;;5047811;28;20227;-90
2022/08/17 13:07:57;;;;;;;7.65;5.28;;;33.30;56.40;;;;;;5042726;28;21024;-88
2022/08/17 13:10:26;;;;;;;4.80;4.40;;;33.30;56.40;;;;;;5042437;28;20227;-91
2022/08/17 13:12:54;;;;;;;5.63;5.05;;;33.40;55.10;;;;;;5043199;28;20243;-90
2022/08/17 13:15:24;;;;;;;7.50;4.72;;;33.60;55.50;;;;;;5041015;28;20223;-89
2022/08/17 13:17:58;;;;;;;4.72;4.32;;;33.70;55.70;;;;;;5061227;28;20219;-91
2022/08/17 13:20:25;;;;;;;8.18;5.63;;;33.90;55.50;;;;;;5041880;28;20235;-91
2022/08/17 13:22:59;;;;;;;6.30;4.40;;;34.00;54.70;;;;;;5041983;28;20219;-88
2022/08/17 13:25:28;;;;;;;5.00;4.47;;;34.00;55.00;;;;;;5040749;28;20225;-91
2022/08/17 13:27:55;;;;;;;4.85;4.43;;;34.00;54.50;;;;;;5037379;28;20231;-89
2022/08/17 13:30:26;;;;;;;5.15;4.50;;;33.90;54.40;;;;;;5054262;28;20338;-90